sensor_id;sensor_type;location;lat;lon;timestamp;temperature;humidity
2893;DHT22;1456;51.840;12.184;2023-04-01T00:02:03;9.60;99.90
2893;DHT22;1456;51.840;12.184;2023-04-01T00:04:29;9.70;99.90
2893;DHT22;1456;51.840;12.184;2023-04-01T00:06:54;9.70;99.90
2893;DHT22;1456;51.840;12.184;2023-04-01T00:09:20;9.80;99.90
2893;DHT22;1456;51.840;12.184;2023-04-01T00:11:45;9.80;99.90
2893;DHT22;1456;51.840;12.184;2023-04-01T00:14:11;9.80;99.90
2893;DHT22;1456;51.840;12.184;2023-04-01T00:16:37;9.80;99.90
2893;DHT22;1456;51.840;12.184;2023-04-01T00:19:02;9.80;99.90
2893;DHT22;1456;51.840;12.184;2023-04-01T00:21:28;9.80;99.90
2893;DHT22;1456;51.840;12.184;2023-04-01T00:23:53;9.80;99.90
2893;DHT22;1456;51.840;12.184;2023-04-01T00:26:19;9.80;99.90
2893;DHT22;1456;51.840;12.184;2023-04-01T00:28:48;9.80;99.90
2893;DHT22;1456;51.840;12.184;2023-04-01T00:31:14;9.80;99.90
2893;DHT22;1456;51.840;12.184;2023-04-01T00:33:39;9.80;99.90
2893;DHT22;1456;51.840;12.184;2023-04-01T00:36:10;9.80;99.90
2893;DHT22;1456;51.840;12.184;2023-04-01T00:38:36;9.80;99.90
2893;DHT22;1456;51.840;12.184;2023-04-01T00:41:01;9.80;99.90
2893;DHT22;1456;51.840;12.184;2023-04-01T00:43:27;9.90;99.90
2893;DHT22;1456;51.840;12.184;2023-04-01T00:45:52;9.90;99.90
2893;DHT22;1456;51.840;12.184;2023-04-01T00:48:25;9.80;99.90
2893;DHT22;1456;51.840;12.184;2023-04-01T00:50:52;9.80;99.90
2893;DHT22;1456;51.840;12.184;2023-04-01T00:53:19;9.80;99.90
2893;DHT22;1456;51.840;12.184;2023-04-01T00:56:47;9.90;99.90
2893;DHT22;1456;51.840;12.184;2023-04-01T00:58:41;9.80;99.90
2893;DHT22;1456;51.840;12.184;2023-04-01T01:01:08;9.60;99.90
2893;DHT22;1456;51.840;12.184;2023-04-01T01:03:35;9.70;99.90
2893;DHT22;1456;51.840;12.184;2023-04-01T01:08:48;9.70;99.90
2893;DHT22;1456;51.840;12.184;2023-04-01T01:11:15;9.70;99.90
2893;DHT22;1456;51.840;12.184;2023-04-01T01:13:51;9.60;99.90
2893;DHT22;1456;51.840;12.184;2023-04-01T01:16:28;9.50;99.90
2893;DHT22;1456;51.840;12.184;2023-04-01T01:37:17;9.40;99.90
2893;DHT22;1456;51.840;12.184;2023-04-01T01:39:44;9.40;99.90
2893;DHT22;1456;51.840;12.184;2023-04-01T01:42:12;9.50;99.90
2893;DHT22;1456;51.840;12.184;2023-04-01T01:44:40;9.50;99.90
2893;DHT22;1456;51.840;12.184;2023-04-01T01:47:07;9.60;99.90
2893;DHT22;1456;51.840;12.184;2023-04-01T01:49:33;9.60;99.90
2893;DHT22;1456;51.840;12.184;2023-04-01T01:51:59;9.60;99.90
2893;DHT22;1456;51.840;12.184;2023-04-01T01:54:25;9.60;99.90
2893;DHT22;1456;51.840;12.184;2023-04-01T01:56:51;9.60;99.90
2893;DHT22;1456;51.840;12.184;2023-04-01T01:59:17;9.60;99.90
2893;DHT22;1456;51.840;12.184;2023-04-01T02:01:47;9.70;99.90
2893;DHT22;1456;51.840;12.184;2023-04-01T02:04:14;9.60;99.90
2893;DHT22;1456;51.840;12.184;2023-04-01T02:06:43;9.70;99.90
2893;DHT22;1456;51.840;12.184;2023-04-01T02:09:11;9.70;99.90
2893;DHT22;1456;51.840;12.184;2023-04-01T02:11:42;9.70;99.90
2893;DHT22;1456;51.840;12.184;2023-04-01T02:14:10;9.80;99.90
2893;DHT22;1456;51.840;12.184;2023-04-01T02:16:42;9.80;99.90
2893;DHT22;1456;51.840;12.184;2023-04-01T02:19:09;9.80;99.90
2893;DHT22;1456;51.840;12.184;2023-04-01T02:21:36;9.70;99.90
2893;DHT22;1456;51.840;12.184;2023-04-01T02:24:04;9.70;99.90
2893;DHT22;1456;51.840;12.184;2023-04-01T02:26:30;9.70;99.90
2893;DHT22;1456;51.840;12.184;2023-04-01T02:28:56;9.80;99.90
2893;DHT22;1456;51.840;12.184;2023-04-01T02:31:22;9.80;99.90
2893;DHT22;1456;51.840;12.184;2023-04-01T02:33:48;9.90;99.90
2893;DHT22;1456;51.840;12.184;2023-04-01T02:36:15;9.90;99.90
2893;DHT22;1456;51.840;12.184;2023-04-01T02:38:42;9.90;99.90
2893;DHT22;1456;51.840;12.184;2023-04-01T02:41:07;10.00;99.90
2893;DHT22;1456;51.840;12.184;2023-04-01T02:43:33;10.10;99.90
2893;DHT22;1456;51.840;12.184;2023-04-01T02:45:58;10.20;99.90
2893;DHT22;1456;51.840;12.184;2023-04-01T02:48:24;10.10;99.90
2893;DHT22;1456;51.840;12.184;2023-04-01T02:50:50;10.10;99.90
2893;DHT22;1456;51.840;12.184;2023-04-01T02:53:15;10.20;99.90
2893;DHT22;1456;51.840;12.184;2023-04-01T02:55:41;10.10;99.90
2893;DHT22;1456;51.840;12.184;2023-04-01T02:58:07;10.10;99.90
2893;DHT22;1456;51.840;12.184;2023-04-01T03:00:32;10.10;99.90
2893;DHT22;1456;51.840;12.184;2023-04-01T03:02:59;10.10;99.90
2893;DHT22;1456;51.840;12.184;2023-04-01T03:05:25;10.20;99.90
2893;DHT22;1456;51.840;12.184;2023-04-01T03:07:51;10.10;99.90
2893;DHT22;1456;51.840;12.184;2023-04-01T03:10:18;10.10;99.90
2893;DHT22;1456;51.840;12.184;2023-04-01T03:12:44;10.10;99.90
2893;DHT22;1456;51.840;12.184;2023-04-01T03:15:10;10.10;99.90
2893;DHT22;1456;51.840;12.184;2023-04-01T03:17:36;10.10;99.90
2893;DHT22;1456;51.840;12.184;2023-04-01T03:20:02;10.10;99.90
2893;DHT22;1456;51.840;12.184;2023-04-01T03:22:30;10.20;99.90
2893;DHT22;1456;51.840;12.184;2023-04-01T03:24:55;10.10;99.90
2893;DHT22;1456;51.840;12.184;2023-04-01T03:27:21;10.10;99.90
2893;DHT22;1456;51.840;12.184;2023-04-01T03:29:46;10.00;99.90
2893;DHT22;1456;51.840;12.184;2023-04-01T03:32:12;10.00;99.90
2893;DHT22;1456;51.840;12.184;2023-04-01T03:34:38;10.00;99.90
2893;DHT22;1456;51.840;12.184;2023-04-01T03:37:03;10.00;99.90
2893;DHT22;1456;51.840;12.184;2023-04-01T03:39:30;9.90;99.90
2893;DHT22;1456;51.840;12.184;2023-04-01T03:41:56;10.00;99.90
2893;DHT22;1456;51.840;12.184;2023-04-01T03:44:21;9.80;99.90
2893;DHT22;1456;51.840;12.184;2023-04-01T03:46:47;9.80;99.90
2893;DHT22;1456;51.840;12.184;2023-04-01T03:49:12;9.80;99.90
2893;DHT22;1456;51.840;12.184;2023-04-01T03:51:39;9.80;99.90
2893;DHT22;1456;51.840;12.184;2023-04-01T03:54:04;9.80;99.90
2893;DHT22;1456;51.840;12.184;2023-04-01T03:56:31;9.70;99.90
2893;DHT22;1456;51.840;12.184;2023-04-01T03:58:56;9.70;99.90
2893;DHT22;1456;51.840;12.184;2023-04-01T04:01:22;9.80;99.90
2893;DHT22;1456;51.840;12.184;2023-04-01T04:03:49;9.80;99.90
2893;DHT22;1456;51.840;12.184;2023-04-01T04:06:15;9.90;99.90
2893;DHT22;1456;51.840;12.184;2023-04-01T04:08:41;9.90;99.90
2893;DHT22;1456;51.840;12.184;2023-04-01T04:11:08;9.90;99.90
2893;DHT22;1456;51.840;12.184;2023-04-01T04:13:33;10.00;99.90
2893;DHT22;1456;51.840;12.184;2023-04-01T04:15:59;9.90;99.90
2893;DHT22;1456;51.840;12.184;2023-04-01T04:18:24;9.90;99.90
2893;DHT22;1456;51.840;12.184;2023-04-01T04:20:50;9.80;99.90
2893;DHT22;1456;51.840;12.184;2023-04-01T04:23:16;9.80;99.90
2893;DHT22;1456;51.840;12.184;2023-04-01T04:26:02;9.70;99.90
2893;DHT22;1456;51.840;12.184;2023-04-01T04:28:28;9.70;99.90
2893;DHT22;1456;51.840;12.184;2023-04-01T04:30:54;9.70;99.90
2893;DHT22;1456;51.840;12.184;2023-04-01T04:33:20;9.70;99.90
2893;DHT22;1456;51.840;12.184;2023-04-01T04:35:46;9.70;99.90
2893;DHT22;1456;51.840;12.184;2023-04-01T04:38:12;9.70;99.90
2893;DHT22;1456;51.840;12.184;2023-04-01T04:40:38;9.70;99.90
2893;DHT22;1456;51.840;12.184;2023-04-01T04:43:03;9.70;99.90
2893;DHT22;1456;51.840;12.184;2023-04-01T04:45:29;9.70;99.90
2893;DHT22;1456;51.840;12.184;2023-04-01T04:47:55;9.80;99.90
2893;DHT22;1456;51.840;12.184;2023-04-01T04:50:21;9.70;99.90
2893;DHT22;1456;51.840;12.184;2023-04-01T04:52:46;9.70;99.90
2893;DHT22;1456;51.840;12.184;2023-04-01T04:55:12;9.60;99.90
2893;DHT22;1456;51.840;12.184;2023-04-01T04:57:37;9.60;99.90
2893;DHT22;1456;51.840;12.184;2023-04-01T05:00:03;9.70;99.90
2893;DHT22;1456;51.840;12.184;2023-04-01T05:02:29;9.70;99.90
2893;DHT22;1456;51.840;12.184;2023-04-01T05:04:54;9.70;99.90
2893;DHT22;1456;51.840;12.184;2023-04-01T05:07:20;9.80;99.90
2893;DHT22;1456;51.840;12.184;2023-04-01T05:09:45;9.70;99.90
2893;DHT22;1456;51.840;12.184;2023-04-01T05:12:12;9.80;99.90
2893;DHT22;1456;51.840;12.184;2023-04-01T05:14:38;9.80;99.90
2893;DHT22;1456;51.840;12.184;2023-04-01T05:17:04;9.90;99.90
2893;DHT22;1456;51.840;12.184;2023-04-01T05:19:29;9.90;99.90
2893;DHT22;1456;51.840;12.184;2023-04-01T05:21:55;10.00;99.90
2893;DHT22;1456;51.840;12.184;2023-04-01T05:24:21;10.00;99.90
2893;DHT22;1456;51.840;12.184;2023-04-01T05:26:47;10.00;99.90
2893;DHT22;1456;51.840;12.184;2023-04-01T05:29:12;10.10;99.90
2893;DHT22;1456;51.840;12.184;2023-04-01T05:31:38;10.10;99.90
2893;DHT22;1456;51.840;12.184;2023-04-01T05:34:03;10.10;99.90
2893;DHT22;1456;51.840;12.184;2023-04-01T05:36:29;10.10;99.90
2893;DHT22;1456;51.840;12.184;2023-04-01T05:38:55;10.10;99.90
2893;DHT22;1456;51.840;12.184;2023-04-01T05:41:20;10.10;99.90
2893;DHT22;1456;51.840;12.184;2023-04-01T05:43:46;10.10;99.90
2893;DHT22;1456;51.840;12.184;2023-04-01T05:46:11;10.20;99.90
2893;DHT22;1456;51.840;12.184;2023-04-01T05:48:37;10.10;99.90
2893;DHT22;1456;51.840;12.184;2023-04-01T05:51:02;10.10;99.90
2893;DHT22;1456;51.840;12.184;2023-04-01T05:53:28;10.10;99.90
2893;DHT22;1456;51.840;12.184;2023-04-01T05:55:54;10.10;99.90
2893;DHT22;1456;51.840;12.184;2023-04-01T05:58:19;10.10;99.90
2893;DHT22;1456;51.840;12.184;2023-04-01T06:00:45;10.20;99.90
2893;DHT22;1456;51.840;12.184;2023-04-01T06:03:11;10.40;99.90
2893;DHT22;1456;51.840;12.184;2023-04-01T06:05:40;10.50;99.90
2893;DHT22;1456;51.840;12.184;2023-04-01T06:08:16;10.70;99.90
2893;DHT22;1456;51.840;12.184;2023-04-01T06:11:07;10.80;99.90
2893;DHT22;1456;51.840;12.184;2023-04-01T06:16:38;11.00;99.90
2893;DHT22;1456;51.840;12.184;2023-04-01T06:24:11;11.30;99.90
2893;DHT22;1456;51.840;12.184;2023-04-01T06:26:39;11.40;99.90
2893;DHT22;1456;51.840;12.184;2023-04-01T06:34:38;11.30;99.90
2893;DHT22;1456;51.840;12.184;2023-04-01T06:37:15;11.30;99.90
2893;DHT22;1456;51.840;12.184;2023-04-01T06:49:56;11.50;99.90
2893;DHT22;1456;51.840;12.184;2023-04-01T06:57:47;11.60;99.90
2893;DHT22;1456;51.840;12.184;2023-04-01T07:00:16;11.60;99.90
2893;DHT22;1456;51.840;12.184;2023-04-01T07:02:48;11.80;99.90
2893;DHT22;1456;51.840;12.184;2023-04-01T07:05:18;12.00;99.90
2893;DHT22;1456;51.840;12.184;2023-04-01T07:07:46;12.20;99.90
2893;DHT22;1456;51.840;12.184;2023-04-01T07:10:33;12.10;99.90
2893;DHT22;1456;51.840;12.184;2023-04-01T07:13:00;12.10;99.90
2893;DHT22;1456;51.840;12.184;2023-04-01T07:15:33;12.10;99.90
2893;DHT22;1456;51.840;12.184;2023-04-01T07:18:44;11.90;99.90
2893;DHT22;1456;51.840;12.184;2023-04-01T07:20:50;11.80;99.90
2893;DHT22;1456;51.840;12.184;2023-04-01T07:23:21;11.80;99.90
2893;DHT22;1456;51.840;12.184;2023-04-01T07:25:51;11.80;99.90
2893;DHT22;1456;51.840;12.184;2023-04-01T07:28:17;12.00;99.90
2893;DHT22;1456;51.840;12.184;2023-04-01T07:33:14;12.00;99.90
2893;DHT22;1456;51.840;12.184;2023-04-01T07:35:55;12.00;99.90
2893;DHT22;1456;51.840;12.184;2023-04-01T07:41:12;12.50;99.90
2893;DHT22;1456;51.840;12.184;2023-04-01T07:56:28;13.40;99.90
2893;DHT22;1456;51.840;12.184;2023-04-01T08:01:51;13.70;99.90
2893;DHT22;1456;51.840;12.184;2023-04-01T08:06:48;13.90;99.90
2893;DHT22;1456;51.840;12.184;2023-04-01T08:21:47;13.30;99.90
2893;DHT22;1456;51.840;12.184;2023-04-01T08:24:37;13.30;99.90
2893;DHT22;1456;51.840;12.184;2023-04-01T08:27:03;13.20;99.90
2893;DHT22;1456;51.840;12.184;2023-04-01T08:29:42;13.20;99.90
2893;DHT22;1456;51.840;12.184;2023-04-01T08:32:12;13.30;99.90
2893;DHT22;1456;51.840;12.184;2023-04-01T08:34:43;13.60;99.90
2893;DHT22;1456;51.840;12.184;2023-04-01T08:37:13;13.90;99.90
2893;DHT22;1456;51.840;12.184;2023-04-01T09:06:24;15.40;99.90
2893;DHT22;1456;51.840;12.184;2023-04-01T09:12:01;16.10;99.90
2893;DHT22;1456;51.840;12.184;2023-04-01T09:14:37;16.30;99.90
2893;DHT22;1456;51.840;12.184;2023-04-01T09:22:58;16.20;99.90
2893;DHT22;1456;51.840;12.184;2023-04-01T09:35:30;16.50;99.90
2893;DHT22;1456;51.840;12.184;2023-04-01T09:40:52;16.70;99.90
2893;DHT22;1456;51.840;12.184;2023-04-01T10:01:39;16.80;99.90
2893;DHT22;1456;51.840;12.184;2023-04-01T10:25:18;17.60;99.00
2893;DHT22;1456;51.840;12.184;2023-04-01T10:38:40;17.70;99.30
2893;DHT22;1456;51.840;12.184;2023-04-01T10:56:36;17.30;98.00
2893;DHT22;1456;51.840;12.184;2023-04-01T11:40:43;14.70;99.90
2893;DHT22;1456;51.840;12.184;2023-04-01T11:46:10;14.90;99.90
2893;DHT22;1456;51.840;12.184;2023-04-01T11:51:21;15.50;99.90
2893;DHT22;1456;51.840;12.184;2023-04-01T11:56:22;15.90;99.90
2893;DHT22;1456;51.840;12.184;2023-04-01T12:20:22;17.70;99.90
2893;DHT22;1456;51.840;12.184;2023-04-01T12:23:13;18.00;99.90
2893;DHT22;1456;51.840;12.184;2023-04-01T12:28:14;18.30;98.90
2893;DHT22;1456;51.840;12.184;2023-04-01T12:35:46;18.90;98.10
2893;DHT22;1456;51.840;12.184;2023-04-01T12:38:28;18.80;97.00
2893;DHT22;1456;51.840;12.184;2023-04-01T12:43:56;19.00;96.50
2893;DHT22;1456;51.840;12.184;2023-04-01T12:46:47;19.00;97.80
2893;DHT22;1456;51.840;12.184;2023-04-01T12:49:34;18.90;96.70
2893;DHT22;1456;51.840;12.184;2023-04-01T12:55:00;18.90;96.20
2893;DHT22;1456;51.840;12.184;2023-04-01T13:13:10;18.20;98.30
2893;DHT22;1456;51.840;12.184;2023-04-01T13:15:41;18.30;98.40
2893;DHT22;1456;51.840;12.184;2023-04-01T13:20:51;18.30;98.60
2893;DHT22;1456;51.840;12.184;2023-04-01T13:23:32;18.10;97.90
2893;DHT22;1456;51.840;12.184;2023-04-01T13:28:35;18.40;99.60
2893;DHT22;1456;51.840;12.184;2023-04-01T13:36:28;20.10;97.40
2893;DHT22;1456;51.840;12.184;2023-04-01T13:39:20;20.60;96.50
2893;DHT22;1456;51.840;12.184;2023-04-01T13:44:35;20.80;96.60
2893;DHT22;1456;51.840;12.184;2023-04-01T14:08:36;16.90;98.00
2893;DHT22;1456;51.840;12.184;2023-04-01T14:16:14;15.20;99.90
2893;DHT22;1456;51.840;12.184;2023-04-01T14:29:09;14.60;99.90
2893;DHT22;1456;51.840;12.184;2023-04-01T14:37:01;14.90;99.90
2893;DHT22;1456;51.840;12.184;2023-04-01T14:49:42;14.30;99.90
2893;DHT22;1456;51.840;12.184;2023-04-01T14:52:23;14.20;99.90
2893;DHT22;1456;51.840;12.184;2023-04-01T14:54:50;14.00;99.90
2893;DHT22;1456;51.840;12.184;2023-04-01T14:57:27;13.70;99.90
2893;DHT22;1456;51.840;12.184;2023-04-01T15:00:05;13.80;99.90
2893;DHT22;1456;51.840;12.184;2023-04-01T15:07:35;13.90;99.90
2893;DHT22;1456;51.840;12.184;2023-04-01T15:12:54;14.10;99.90
2893;DHT22;1456;51.840;12.184;2023-04-01T15:21:18;14.30;99.90
2893;DHT22;1456;51.840;12.184;2023-04-01T15:26:13;14.50;99.90
2893;DHT22;1456;51.840;12.184;2023-04-01T15:31:10;14.50;99.90
2893;DHT22;1456;51.840;12.184;2023-04-01T15:36:36;14.50;99.90
2893;DHT22;1456;51.840;12.184;2023-04-01T15:43:59;14.50;99.90
2893;DHT22;1456;51.840;12.184;2023-04-01T15:46:30;14.60;99.90
2893;DHT22;1456;51.840;12.184;2023-04-01T15:54:48;15.10;99.90
2893;DHT22;1456;51.840;12.184;2023-04-01T16:00:11;15.10;99.90
2893;DHT22;1456;51.840;12.184;2023-04-01T16:05:25;15.00;99.90
2893;DHT22;1456;51.840;12.184;2023-04-01T16:08:05;14.70;99.90
2893;DHT22;1456;51.840;12.184;2023-04-01T16:10:37;14.50;99.90
2893;DHT22;1456;51.840;12.184;2023-04-01T16:13:17;14.40;99.90
2893;DHT22;1456;51.840;12.184;2023-04-01T16:25:49;13.80;99.90
2893;DHT22;1456;51.840;12.184;2023-04-01T16:29:19;13.70;99.90
2893;DHT22;1456;51.840;12.184;2023-04-01T16:36:26;12.60;99.90
2893;DHT22;1456;51.840;12.184;2023-04-01T16:41:31;12.30;99.90
2893;DHT22;1456;51.840;12.184;2023-04-01T16:44:09;12.10;99.90
2893;DHT22;1456;51.840;12.184;2023-04-01T16:51:33;11.70;99.90
2893;DHT22;1456;51.840;12.184;2023-04-01T16:54:02;11.60;99.90
2893;DHT22;1456;51.840;12.184;2023-04-01T16:56:53;11.40;99.90
2893;DHT22;1456;51.840;12.184;2023-04-01T16:59:22;11.30;99.90
2893;DHT22;1456;51.840;12.184;2023-04-01T17:04:24;11.00;99.90
2893;DHT22;1456;51.840;12.184;2023-04-01T17:11:59;10.60;99.90
2893;DHT22;1456;51.840;12.184;2023-04-01T17:14:42;10.60;99.90
2893;DHT22;1456;51.840;12.184;2023-04-01T17:17:28;10.60;99.90
2893;DHT22;1456;51.840;12.184;2023-04-01T17:19:56;10.40;99.90
2893;DHT22;1456;51.840;12.184;2023-04-01T17:38:02;9.90;99.90
2893;DHT22;1456;51.840;12.184;2023-04-01T17:48:02;9.50;99.90
2893;DHT22;1456;51.840;12.184;2023-04-01T17:56:41;9.40;99.90
2893;DHT22;1456;51.840;12.184;2023-04-01T17:58:56;9.30;99.90
2893;DHT22;1456;51.840;12.184;2023-04-01T18:27:15;8.90;99.90
2893;DHT22;1456;51.840;12.184;2023-04-01T18:35:02;9.00;99.90
2893;DHT22;1456;51.840;12.184;2023-04-01T18:37:39;9.00;99.90
2893;DHT22;1456;51.840;12.184;2023-04-01T18:42:57;8.90;99.90
2893;DHT22;1456;51.840;12.184;2023-04-01T18:50:47;8.70;99.90
2893;DHT22;1456;51.840;12.184;2023-04-01T19:03:44;8.40;99.90
2893;DHT22;1456;51.840;12.184;2023-04-01T19:06:46;8.20;99.90
2893;DHT22;1456;51.840;12.184;2023-04-01T19:09:15;8.10;99.90
2893;DHT22;1456;51.840;12.184;2023-04-01T19:11:44;8.10;99.90
2893;DHT22;1456;51.840;12.184;2023-04-01T19:14:42;8.10;99.90
2893;DHT22;1456;51.840;12.184;2023-04-01T19:17:26;8.00;99.90
2893;DHT22;1456;51.840;12.184;2023-04-01T19:20:00;8.10;99.90
2893;DHT22;1456;51.840;12.184;2023-04-01T19:25:46;7.90;99.90
2893;DHT22;1456;51.840;12.184;2023-04-01T19:30:48;7.90;99.90
2893;DHT22;1456;51.840;12.184;2023-04-01T19:33:26;7.90;99.90
2893;DHT22;1456;51.840;12.184;2023-04-01T19:48:37;7.60;99.90
2893;DHT22;1456;51.840;12.184;2023-04-01T19:53:59;7.50;99.90
2893;DHT22;1456;51.840;12.184;2023-04-01T19:56:22;7.50;99.90
2893;DHT22;1456;51.840;12.184;2023-04-01T19:58:55;7.50;99.90
2893;DHT22;1456;51.840;12.184;2023-04-01T20:03:54;7.40;99.90
2893;DHT22;1456;51.840;12.184;2023-04-01T20:09:04;7.40;99.90
2893;DHT22;1456;51.840;12.184;2023-04-01T20:14:26;7.40;99.90
2893;DHT22;1456;51.840;12.184;2023-04-01T20:17:01;7.40;99.90
2893;DHT22;1456;51.840;12.184;2023-04-01T20:19:28;7.40;99.90
2893;DHT22;1456;51.840;12.184;2023-04-01T20:21:57;7.40;99.90
2893;DHT22;1456;51.840;12.184;2023-04-01T20:24:43;7.30;99.90
2893;DHT22;1456;51.840;12.184;2023-04-01T20:27:14;7.20;99.90
2893;DHT22;1456;51.840;12.184;2023-04-01T20:30:05;7.20;99.90
2893;DHT22;1456;51.840;12.184;2023-04-01T20:32:35;7.20;99.90
2893;DHT22;1456;51.840;12.184;2023-04-01T20:50:36;6.80;99.90
2893;DHT22;1456;51.840;12.184;2023-04-01T20:53:15;6.70;99.90
2893;DHT22;1456;51.840;12.184;2023-04-01T20:56:42;6.70;99.90
2893;DHT22;1456;51.840;12.184;2023-04-01T20:58:50;6.70;99.90
2893;DHT22;1456;51.840;12.184;2023-04-01T21:04:04;6.60;99.90
2893;DHT22;1456;51.840;12.184;2023-04-01T21:09:23;6.40;99.90
2893;DHT22;1456;51.840;12.184;2023-04-01T21:11:56;6.30;99.90
2893;DHT22;1456;51.840;12.184;2023-04-01T21:20:12;6.20;99.90
2893;DHT22;1456;51.840;12.184;2023-04-01T21:36:34;5.90;99.90
2893;DHT22;1456;51.840;12.184;2023-04-01T21:41:34;6.00;99.90
2893;DHT22;1456;51.840;12.184;2023-04-01T22:05:10;6.00;99.90
2893;DHT22;1456;51.840;12.184;2023-04-01T22:10:12;5.90;99.90
2893;DHT22;1456;51.840;12.184;2023-04-01T22:12:47;5.90;99.90
2893;DHT22;1456;51.840;12.184;2023-04-01T22:18:05;5.90;99.90
2893;DHT22;1456;51.840;12.184;2023-04-01T22:20:45;5.80;99.90
2893;DHT22;1456;51.840;12.184;2023-04-01T22:25:55;5.90;99.90
2893;DHT22;1456;51.840;12.184;2023-04-01T22:28:29;5.90;99.90
2893;DHT22;1456;51.840;12.184;2023-04-01T22:30:59;6.00;99.90
2893;DHT22;1456;51.840;12.184;2023-04-01T22:39:21;5.90;99.90
2893;DHT22;1456;51.840;12.184;2023-04-01T22:44:49;5.80;99.90
2893;DHT22;1456;51.840;12.184;2023-04-01T22:52:44;5.60;99.90
2893;DHT22;1456;51.840;12.184;2023-04-01T22:55:17;5.50;99.90
2893;DHT22;1456;51.840;12.184;2023-04-01T22:57:51;5.50;99.90
2893;DHT22;1456;51.840;12.184;2023-04-01T23:00:32;5.50;99.90
2893;DHT22;1456;51.840;12.184;2023-04-01T23:05:25;5.40;99.90
2893;DHT22;1456;51.840;12.184;2023-04-01T23:10:30;5.40;99.90
2893;DHT22;1456;51.840;12.184;2023-04-01T23:13:02;5.50;99.90
2893;DHT22;1456;51.840;12.184;2023-04-01T23:15:28;5.40;99.90
2893;DHT22;1456;51.840;12.184;2023-04-01T23:17:58;5.40;99.90
2893;DHT22;1456;51.840;12.184;2023-04-01T23:23:05;5.30;99.90
2893;DHT22;1456;51.840;12.184;2023-04-01T23:36:02;5.40;99.90
2893;DHT22;1456;51.840;12.184;2023-04-01T23:38:36;5.40;99.90
2893;DHT22;1456;51.840;12.184;2023-04-01T23:41:02;5.40;99.90
2893;DHT22;1456;51.840;12.184;2023-04-01T23:43:32;5.40;99.90
2893;DHT22;1456;51.840;12.184;2023-04-01T23:45:58;5.30;99.90
2893;DHT22;1456;51.840;12.184;2023-04-01T23:48:30;5.20;99.90
2893;DHT22;1456;51.840;12.184;2023-04-01T23:50:57;5.10;99.90
2893;DHT22;1456;51.840;12.184;2023-04-01T23:53:24;5.10;99.90
2893;DHT22;1456;51.840;12.184;2023-04-01T23:55:52;5.10;99.90
2893;DHT22;1456;51.840;12.184;2023-04-01T23:59:01;5.10;99.90
